Kapaa, Hawaii
Current Conditions -  °F | °C
As of 4:53 PM on Thursday 27 Nov 2014 (Local Time) from PHLI Reporting Station
Overcast Overcast  
Wind Chill: 75°   Ceiling: 3800
Heat Index: 75°   Visibility: 10mi
Dew Point: 61°   Wind: 21mph
Humidity: 62%   Direction: 50°NE
Pressure: 30.07"   Gusts: 26mph
Location:  22.08°N, 159.31°W
Report Text: PHLI 280253Z 05018G23KT 10SM BKN038 OVC047 24/16 A3007 RMK AO2 SLP180 T02390161 53008 $
Loading
Personal Weather Stations






























Interactive Weather Map New forecast layout! Learn more

10-Day Weather Forecast

Advertisements
Track Severe Weather on mobile